Time;durP1;ratioP1;P1;durP2;ratioP2;P2;SDS_P1;SDS_P2;PMS_P1;PMS_P2;Temp;Humidity;BMP_temperature;BMP_pressure;BME280_temperature;BME280_humidity;BME280_pressure;Samples;Min_cycle;Max_cycle;Signal;HPM_P1;HPM_P2
2022/04/02 00:00:44;;;;;;;5.63;3.10;;;1.70;99.90;;;;;;5086108;28;20120;-70
2022/04/02 00:03:11;;;;;;;5.63;3.00;;;1.70;99.90;;;;;;5053831;28;20059;-70
2022/04/02 00:05:36;;;;;;;4.13;2.80;;;1.70;99.90;;;;;;5053382;28;20036;-71
2022/04/02 00:08:03;;;;;;;5.17;3.13;;;1.70;99.90;;;;;;5050164;28;20051;-71
2022/04/02 00:10:29;;;;;;;7.23;3.50;;;1.60;99.90;;;;;;5073502;28;20081;-70
2022/04/02 00:12:57;;;;;;;5.67;2.93;;;1.60;99.90;;;;;;5085528;28;20172;-71
2022/04/02 00:15:23;;;;;;;5.80;2.97;;;1.60;99.90;;;;;;5086588;28;20049;-70
2022/04/02 00:17:49;;;;;;;4.57;2.70;;;1.60;99.90;;;;;;5072327;28;20166;-71
2022/04/02 00:20:17;;;;;;;5.83;3.43;;;1.50;99.90;;;;;;5069069;28;20157;-71
2022/04/02 00:23:35;;;;;;;6.03;3.53;;;1.50;99.90;;;;;;5052936;28;20748;-71
2022/04/02 00:25:29;;;;;;;7.00;3.40;;;1.60;99.90;;;;;;5085836;28;20048;-71
2022/04/02 00:27:55;;;;;;;9.00;3.30;;;1.50;99.90;;;;;;5069942;28;20047;-70
2022/04/02 00:30:21;;;;;;;5.40;3.30;;;1.50;99.90;;;;;;5054338;28;20130;-70
2022/04/02 00:32:47;;;;;;;6.70;3.33;;;1.50;99.90;;;;;;5068378;28;20597;-71
2022/04/02 00:35:14;;;;;;;4.70;3.20;;;1.50;99.90;;;;;;5085944;28;20058;-71
2022/04/02 00:37:40;;;;;;;4.77;3.00;;;1.40;99.90;;;;;;5050076;28;20086;-71
2022/04/02 00:40:07;;;;;;;8.50;3.77;;;1.40;99.90;;;;;;5084680;28;20483;-71
2022/04/02 00:42:33;;;;;;;6.37;3.20;;;1.40;99.90;;;;;;5086756;28;20059;-71
2022/04/02 00:44:59;;;;;;;5.50;3.60;;;1.40;99.90;;;;;;5086906;28;20048;-71
2022/04/02 00:47:24;;;;;;;4.83;3.10;;;1.30;99.90;;;;;;5086376;28;20047;-71
2022/04/02 00:49:54;;;;;;;4.90;2.60;;;1.40;99.90;;;;;;5069090;28;20073;-70
2022/04/02 00:52:24;;;;;;;7.50;3.00;;;1.30;99.90;;;;;;5085403;28;20043;-70
2022/04/02 00:54:52;;;;;;;6.73;3.70;;;1.40;99.90;;;;;;5085904;28;20125;-71
2022/04/02 00:57:18;;;;;;;5.33;3.20;;;1.40;99.90;;;;;;5085561;28;20505;-71
2022/04/02 00:59:45;;;;;;;7.00;3.43;;;1.40;99.90;;;;;;5068538;28;20038;-70
2022/04/02 01:02:10;;;;;;;6.67;3.40;;;1.40;99.90;;;;;;5047438;28;20150;-70
2022/04/02 01:04:36;;;;;;;5.57;3.17;;;1.30;99.90;;;;;;5040309;28;20039;-70
2022/04/02 01:07:03;;;;;;;4.67;3.27;;;1.30;99.90;;;;;;5068017;28;20252;-70
2022/04/02 01:09:29;;;;;;;4.97;3.23;;;1.30;99.90;;;;;;5085422;28;20402;-70
2022/04/02 01:11:57;;;;;;;6.57;3.40;;;1.20;99.90;;;;;;5067188;28;20051;-70
2022/04/02 01:14:23;;;;;;;5.97;3.90;;;1.20;99.90;;;;;;5082480;28;20069;-70
2022/04/02 01:16:50;;;;;;;5.37;3.10;;;1.10;99.90;;;;;;5083488;28;20039;-71
2022/04/02 01:19:16;;;;;;;5.57;3.70;;;1.20;99.90;;;;;;5084343;28;20556;-71
2022/04/02 01:21:46;;;;;;;6.83;3.77;;;1.10;99.90;;;;;;5085188;28;20050;-71
2022/04/02 01:24:12;;;;;;;6.28;3.10;;;1.10;99.90;;;;;;5067869;28;20055;-71
2022/04/02 01:26:38;;;;;;;5.57;3.40;;;1.10;99.90;;;;;;5081407;28;20566;-70
2022/04/02 01:29:06;;;;;;;6.00;4.20;;;1.00;99.90;;;;;;5085415;28;20062;-70
2022/04/02 01:31:33;;;;;;;9.53;3.77;;;1.10;99.90;;;;;;5083241;28;20051;-70
2022/04/02 01:34:00;;;;;;;8.63;3.90;;;1.00;99.90;;;;;;5068372;28;20075;-71
2022/04/02 01:36:26;;;;;;;6.40;3.97;;;1.00;99.90;;;;;;5067829;28;20050;-70
2022/04/02 01:38:52;;;;;;;6.07;3.53;;;1.00;99.90;;;;;;5068310;28;20734;-70
2022/04/02 01:41:18;;;;;;;7.13;3.30;;;1.00;99.90;;;;;;5079434;28;20043;-70
2022/04/02 01:43:45;;;;;;;5.57;3.07;;;1.00;99.90;;;;;;5099680;28;20036;-70
2022/04/02 01:46:12;;;;;;;5.73;3.67;;;1.00;99.90;;;;;;5083821;28;20048;-70
2022/04/02 01:48:38;;;;;;;5.97;3.50;;;1.00;99.90;;;;;;5068047;28;20059;-71
2022/04/02 01:51:04;;;;;;;7.23;3.77;;;1.00;99.90;;;;;;5068359;28;20451;-71
2022/04/02 01:53:31;;;;;;;6.30;3.67;;;1.10;99.90;;;;;;5066734;28;20044;-70
2022/04/02 01:55:57;;;;;;;5.50;3.63;;;1.00;99.90;;;;;;5066381;28;20044;-70
2022/04/02 01:58:22;;;;;;;5.50;3.57;;;1.00;99.90;;;;;;5051767;28;20390;-70
2022/04/02 02:00:48;;;;;;;6.13;4.00;;;1.00;99.90;;;;;;5082846;28;20050;-70
2022/04/02 02:03:15;;;;;;;6.17;3.70;;;1.00;99.90;;;;;;5085167;28;20043;-70
2022/04/02 02:05:41;;;;;;;5.20;3.67;;;1.00;99.90;;;;;;5087073;28;20108;-70
2022/04/02 02:08:08;;;;;;;6.47;4.20;;;1.00;99.90;;;;;;5086213;28;20043;-70
2022/04/02 02:10:34;;;;;;;6.83;4.33;;;0.90;99.90;;;;;;5084767;28;20058;-71
2022/04/02 02:13:00;;;;;;;5.07;3.50;;;0.90;99.90;;;;;;5068435;28;20047;-70
2022/04/02 02:15:27;;;;;;;6.23;3.90;;;0.90;99.90;;;;;;5067025;28;20035;-71
2022/04/02 02:17:53;;;;;;;6.10;4.10;;;0.90;99.90;;;;;;5085187;28;20076;-70
2022/04/02 02:20:20;;;;;;;6.03;4.13;;;0.80;99.90;;;;;;5082908;28;20093;-70
2022/04/02 02:22:48;;;;;;;8.53;4.00;;;0.90;99.90;;;;;;5084310;28;20044;-70
2022/04/02 02:25:15;;;;;;;6.63;4.07;;;0.80;99.90;;;;;;5083816;28;20490;-70
2022/04/02 02:27:42;;;;;;;6.07;3.93;;;0.80;99.90;;;;;;5084069;28;20032;-70
2022/04/02 02:30:10;;;;;;;7.87;4.10;;;0.80;99.90;;;;;;5066910;28;20087;-69
2022/04/02 02:32:39;;;;;;;6.40;3.50;;;0.80;99.90;;;;;;5065718;28;20055;-69
2022/04/02 02:37:50;;;;;;;6.10;4.00;;;0.80;99.90;;;;;;5069170;28;20051;-69
2022/04/02 02:40:16;;;;;;;6.30;3.77;;;0.80;99.90;;;;;;5082078;28;20042;-69
2022/04/02 02:42:42;;;;;;;8.63;4.03;;;0.70;99.90;;;;;;5067485;28;20065;-69
2022/04/02 02:45:08;;;;;;;5.60;3.90;;;0.70;99.90;;;;;;5083512;28;20051;-69
2022/04/02 02:47:34;;;;;;;6.57;3.70;;;0.80;99.90;;;;;;5067153;28;20043;-70
2022/04/02 02:50:00;;;;;;;6.83;3.80;;;0.80;99.90;;;;;;5084129;28;20055;-70
2022/04/02 02:52:27;;;;;;;6.53;4.13;;;0.80;99.90;;;;;;5083763;28;20407;-70
2022/04/02 02:54:53;;;;;;;6.27;4.60;;;0.80;99.90;;;;;;5084062;28;20055;-70
2022/04/02 02:57:19;;;;;;;4.97;3.83;;;0.70;99.90;;;;;;5067391;28;20654;-70
2022/04/02 02:59:45;;;;;;;6.47;4.17;;;0.70;99.90;;;;;;5067045;28;20119;-70
2022/04/02 03:02:11;;;;;;;9.30;4.40;;;0.80;99.90;;;;;;5083785;28;20058;-70
2022/04/02 03:04:37;;;;;;;6.00;3.93;;;0.70;99.90;;;;;;5067400;28;20039;-70
2022/04/02 03:07:04;;;;;;;6.23;3.90;;;0.70;99.90;;;;;;5082931;28;20044;-70
2022/04/02 03:09:30;;;;;;;6.60;4.00;;;0.70;99.90;;;;;;5066814;28;20043;-70
2022/04/02 03:11:56;;;;;;;5.73;3.97;;;0.60;99.90;;;;;;5066442;28;20120;-70
2022/04/02 03:14:22;;;;;;;6.40;3.90;;;0.60;99.90;;;;;;5083803;28;20047;-70
2022/04/02 03:16:47;;;;;;;7.80;4.10;;;0.60;99.90;;;;;;5083550;28;20078;-70
2022/04/02 03:19:13;;;;;;;5.83;3.93;;;0.60;99.90;;;;;;5083141;28;20398;-70
2022/04/02 03:21:39;;;;;;;6.27;3.97;;;0.60;99.90;;;;;;5083896;28;20044;-70
2022/04/02 03:24:05;;;;;;;6.40;3.83;;;0.60;99.90;;;;;;5084045;28;20097;-70
2022/04/02 03:26:31;;;;;;;6.60;4.17;;;0.60;99.90;;;;;;5066051;28;20040;-69
2022/04/02 03:28:57;;;;;;;9.23;4.37;;;0.60;99.90;;;;;;5050878;28;20497;-69
2022/04/02 03:31:23;;;;;;;7.83;3.93;;;0.50;99.90;;;;;;5068607;28;20048;-69
2022/04/02 03:33:49;;;;;;;8.50;4.57;;;0.50;99.90;;;;;;5104943;28;20641;-69
2022/04/02 03:36:15;;;;;;;6.90;4.63;;;0.40;99.90;;;;;;5070603;28;20135;-69
2022/04/02 03:38:41;;;;;;;6.70;4.37;;;0.40;99.90;;;;;;5087633;28;20119;-70
2022/04/02 03:41:07;;;;;;;6.33;4.27;;;0.40;99.90;;;;;;5067511;28;20059;-69
2022/04/02 03:43:33;;;;;;;8.03;4.27;;;0.40;99.90;;;;;;5087786;28;20032;-70
2022/04/02 03:48:44;;;;;;;7.10;4.20;;;0.40;99.90;;;;;;5073577;28;20036;-69
2022/04/02 03:51:10;;;;;;;7.53;4.33;;;0.40;99.90;;;;;;5086586;28;20043;-70
2022/04/02 03:53:36;;;;;;;7.60;4.20;;;0.40;99.90;;;;;;5087530;28;20069;-70
2022/04/02 03:56:03;;;;;;;7.33;3.67;;;0.40;99.90;;;;;;5086975;28;20078;-70
2022/04/02 03:58:31;;;;;;;6.10;4.20;;;0.30;99.90;;;;;;5086712;28;20521;-70
2022/04/02 04:00:57;;;;;;;6.17;3.87;;;0.30;99.90;;;;;;5068772;28;20048;-69
2022/04/02 04:03:23;;;;;;;6.63;4.20;;;0.20;99.90;;;;;;5088207;28;20051;-70
2022/04/02 04:05:49;;;;;;;6.77;3.73;;;0.30;99.90;;;;;;5087690;28;20376;-70
2022/04/02 04:08:15;;;;;;;7.63;3.80;;;0.20;99.90;;;;;;5087949;28;20043;-70
2022/04/02 04:10:41;;;;;;;6.63;4.13;;;0.20;99.90;;;;;;5073554;28;20119;-70
2022/04/02 04:13:07;;;;;;;6.47;3.73;;;0.20;99.90;;;;;;5087601;28;20881;-70
2022/04/02 04:15:33;;;;;;;9.90;4.53;;;0.20;99.90;;;;;;5088569;28;20039;-70
2022/04/02 04:17:59;;;;;;;6.20;3.70;;;0.20;99.90;;;;;;5071674;28;20104;-70
2022/04/02 04:20:25;;;;;;;6.03;3.80;;;0.20;99.90;;;;;;5038233;28;20067;-70
2022/04/02 04:22:52;;;;;;;8.23;4.13;;;0.20;99.90;;;;;;5071279;28;20060;-70
2022/04/02 04:25:18;;;;;;;8.87;4.47;;;0.20;99.90;;;;;;5088399;28;20043;-70
2022/04/02 04:27:43;;;;;;;6.13;3.77;;;0.20;99.90;;;;;;5054998;28;20043;-70
2022/04/02 04:30:10;;;;;;;7.27;4.07;;;0.20;99.90;;;;;;5070965;28;20089;-70
2022/04/02 04:32:35;;;;;;;6.53;3.97;;;0.20;99.90;;;;;;5087120;28;20051;-70
2022/04/02 04:35:02;;;;;;;9.50;4.63;;;0.30;99.90;;;;;;5088168;28;20068;-70
2022/04/02 04:37:28;;;;;;;5.83;3.50;;;0.30;99.90;;;;;;5087904;28;20051;-70
2022/04/02 04:39:54;;;;;;;6.73;3.90;;;0.20;99.90;;;;;;5086909;28;20077;-71
2022/04/02 04:42:21;;;;;;;7.23;3.77;;;0.20;99.90;;;;;;5068942;28;20071;-70
2022/04/02 04:44:47;;;;;;;6.10;3.53;;;0.20;99.90;;;;;;5071393;28;20122;-70
2022/04/02 04:47:13;;;;;;;7.00;3.63;;;0.20;99.90;;;;;;5086934;28;20051;-70
2022/04/02 04:49:39;;;;;;;9.03;4.33;;;0.30;99.90;;;;;;5071399;28;20050;-70
2022/04/02 04:52:05;;;;;;;6.80;3.90;;;0.30;99.90;;;;;;5070857;28;20142;-70
2022/04/02 04:54:31;;;;;;;6.63;4.10;;;0.30;99.90;;;;;;5088451;28;20142;-70
2022/04/02 04:56:56;;;;;;;6.27;3.90;;;0.20;99.90;;;;;;5071116;28;20130;-69
2022/04/02 04:59:22;;;;;;;7.07;3.97;;;0.30;99.90;;;;;;5088196;28;20438;-70
2022/04/02 05:01:48;;;;;;;8.83;4.17;;;0.20;99.90;;;;;;5100359;28;20048;-70
2022/04/02 05:04:14;;;;;;;7.20;3.70;;;0.30;99.90;;;;;;5119582;27;20070;-69
2022/04/02 05:06:41;;;;;;;7.93;4.27;;;0.20;99.90;;;;;;5103418;28;20074;-69
2022/04/02 05:09:08;;;;;;;8.30;4.00;;;0.30;99.90;;;;;;5104209;27;20083;-69
2022/04/02 05:11:35;;;;;;;6.30;4.13;;;0.20;99.90;;;;;;5096999;28;20060;-69
2022/04/02 05:14:01;;;;;;;5.90;3.60;;;0.30;99.90;;;;;;5049973;28;20402;-69
2022/04/02 05:16:27;;;;;;;6.07;4.23;;;0.30;99.90;;;;;;5089102;28;20046;-69
2022/04/02 05:18:53;;;;;;;6.23;3.67;;;0.30;99.90;;;;;;5087485;27;20087;-69
2022/04/02 05:21:19;;;;;;;8.20;3.93;;;0.40;99.90;;;;;;5103536;28;20047;-69
2022/04/02 05:23:45;;;;;;;7.23;3.77;;;0.40;99.90;;;;;;5086982;28;20253;-69
2022/04/02 05:26:11;;;;;;;7.33;3.77;;;0.40;99.90;;;;;;5069746;28;20632;-69
2022/04/02 05:28:37;;;;;;;7.37;3.90;;;0.40;99.90;;;;;;5070460;28;20402;-69
2022/04/02 05:31:03;;;;;;;8.17;4.13;;;0.50;99.90;;;;;;5086647;28;20043;-69
2022/04/02 05:33:30;;;;;;;7.87;3.60;;;0.50;99.90;;;;;;5064716;28;20063;-70
2022/04/02 05:35:57;;;;;;;9.53;3.90;;;0.50;99.90;;;;;;5066655;28;20059;-70
2022/04/02 05:38:23;;;;;;;8.93;4.47;;;0.60;99.90;;;;;;5066489;28;20048;-70
2022/04/02 05:40:49;;;;;;;6.00;3.70;;;0.60;99.90;;;;;;5065125;28;20093;-70
2022/04/02 05:43:15;;;;;;;6.63;4.07;;;0.60;99.90;;;;;;5065954;28;20052;-70
2022/04/02 05:45:41;;;;;;;7.43;3.80;;;0.70;99.90;;;;;;5083440;28;20043;-70
2022/04/02 05:48:07;;;;;;;8.20;3.60;;;0.80;99.90;;;;;;5083179;28;20075;-70
2022/04/02 05:50:33;;;;;;;10.53;3.67;;;0.70;99.90;;;;;;5083510;28;20105;-70
2022/04/02 05:53:00;;;;;;;9.00;3.93;;;0.80;99.90;;;;;;5082563;28;20056;-69
2022/04/02 05:55:26;;;;;;;11.90;4.70;;;0.80;99.90;;;;;;5064853;28;20502;-69
2022/04/02 05:57:52;;;;;;;7.53;4.10;;;0.80;99.90;;;;;;5082280;28;20857;-69
2022/04/02 06:00:18;;;;;;;8.63;4.37;;;0.90;99.90;;;;;;5082263;28;20131;-70
2022/04/02 06:02:45;;;;;;;7.87;4.80;;;0.90;99.90;;;;;;5065978;28;20679;-70
2022/04/02 06:05:13;;;;;;;8.87;4.37;;;0.90;99.90;;;;;;5065367;28;20059;-70
2022/04/02 06:07:40;;;;;;;7.47;4.07;;;0.90;99.90;;;;;;5066481;28;20395;-70
2022/04/02 06:10:07;;;;;;;8.80;4.07;;;1.00;99.90;;;;;;5082880;28;20060;-70
2022/04/02 06:12:33;;;;;;;9.77;4.80;;;1.00;99.90;;;;;;5081675;28;20062;-70
2022/04/02 06:14:59;;;;;;;9.20;4.83;;;1.10;99.90;;;;;;5082902;28;20048;-70
2022/04/02 06:17:25;;;;;;;6.50;4.00;;;1.20;99.90;;;;;;5082545;28;20796;-70
2022/04/02 06:19:52;;;;;;;5.97;3.80;;;1.30;99.90;;;;;;5066068;28;20044;-70
2022/04/02 06:22:18;;;;;;;8.47;4.10;;;1.40;99.90;;;;;;5064943;28;20418;-70
2022/04/02 06:24:44;;;;;;;8.60;4.40;;;1.60;99.90;;;;;;5049023;28;20040;-70
2022/04/02 06:27:10;;;;;;;9.37;5.00;;;1.50;99.90;;;;;;5082469;28;20044;-70
2022/04/02 06:29:36;;;;;;;7.40;4.33;;;1.70;99.90;;;;;;5066149;28;20130;-70
2022/04/02 06:32:01;;;;;;;8.43;4.50;;;1.80;99.90;;;;;;5082824;28;20043;-71
2022/04/02 06:34:27;;;;;;;7.47;4.13;;;1.80;99.90;;;;;;5064896;28;20048;-71
2022/04/02 06:36:54;;;;;;;7.67;4.23;;;1.90;99.90;;;;;;5083785;28;20446;-71
2022/04/02 06:39:20;;;;;;;8.53;4.60;;;2.00;99.90;;;;;;5065121;28;20074;-69
2022/04/02 06:41:46;;;;;;;7.57;4.00;;;2.10;99.90;;;;;;5066552;28;20067;-69
2022/04/02 06:44:11;;;;;;;7.43;4.03;;;2.20;99.90;;;;;;5082757;28;20091;-69
2022/04/02 06:46:38;;;;;;;8.07;4.50;;;2.30;99.90;;;;;;5082683;28;20048;-69
2022/04/02 06:49:04;;;;;;;7.93;4.60;;;2.40;99.90;;;;;;5066684;28;20063;-70
2022/04/02 06:51:30;;;;;;;8.00;4.00;;;2.50;99.90;;;;;;5080318;28;20537;-70
2022/04/02 06:53:56;;;;;;;6.57;4.13;;;2.60;99.90;;;;;;5079582;28;20047;-70
2022/04/02 06:56:22;;;;;;;7.10;4.17;;;2.60;99.90;;;;;;5078882;28;20040;-70
2022/04/02 06:58:48;;;;;;;9.87;4.70;;;2.80;99.90;;;;;;5063654;28;20108;-70
2022/04/02 07:01:14;;;;;;;6.37;4.03;;;2.90;99.90;;;;;;5060647;28;20490;-70
2022/04/02 07:03:40;;;;;;;9.70;4.27;;;2.90;99.90;;;;;;5062070;28;20473;-70
2022/04/02 07:06:07;;;;;;;7.37;4.33;;;3.00;99.90;;;;;;5063059;28;20093;-71
2022/04/02 07:08:36;;;;;;;8.27;4.00;;;3.10;99.90;;;;;;5051065;28;20506;-69
2022/04/02 07:11:01;;;;;;;7.53;3.70;;;3.30;99.90;;;;;;5083242;28;20134;-69
2022/04/02 07:13:27;;;;;;;7.83;3.77;;;3.20;99.90;;;;;;5065515;28;20567;-70
2022/04/02 07:15:53;;;;;;;7.00;4.00;;;3.30;99.90;;;;;;5084053;28;20498;-70
2022/04/02 07:18:20;;;;;;;6.90;4.60;;;3.40;99.90;;;;;;5066156;28;20131;-69
2022/04/02 07:20:50;;;;;;;7.23;3.70;;;3.40;99.90;;;;;;5079360;28;20555;-70
2022/04/02 07:23:16;;;;;;;6.13;3.42;;;3.50;99.90;;;;;;5062235;28;20044;-67
2022/04/02 07:25:43;;;;;;;7.10;3.87;;;3.60;99.90;;;;;;5059620;28;20035;-70
2022/04/02 07:28:09;;;;;;;6.77;3.63;;;3.70;99.90;;;;;;5095654;27;20491;-68
2022/04/02 07:30:37;;;;;;;8.53;3.87;;;3.70;99.90;;;;;;5061783;28;20077;-69
2022/04/02 07:33:04;;;;;;;6.50;3.30;;;3.80;99.90;;;;;;5080061;28;20044;-70
2022/04/02 07:36:00;;;;;;;6.43;3.43;;;3.80;99.90;;;;;;5096779;28;20514;-69
2022/04/02 07:38:32;;;;;;;6.03;3.00;;;3.90;99.90;;;;;;5054257;28;20113;-69
2022/04/02 07:41:22;;;;;;;5.67;3.27;;;3.90;99.90;;;;;;5065136;28;20368;-69
2022/04/02 07:43:54;;;;;;;6.93;3.55;;;4.00;99.90;;;;;;5082846;28;20040;-69
2022/04/02 07:46:28;;;;;;;8.27;3.60;;;4.10;99.90;;;;;;5081867;28;20266;-70
2022/04/02 07:48:57;;;;;;;6.97;3.60;;;4.10;99.90;;;;;;5084258;28;20040;-71
2022/04/02 07:51:26;;;;;;;6.40;3.50;;;4.30;99.90;;;;;;5083831;28;20463;-70
2022/04/02 07:53:56;;;;;;;10.07;3.77;;;4.30;99.90;;;;;;5082800;28;20221;-71
2022/04/02 07:56:27;;;;;;;5.60;3.30;;;4.40;99.90;;;;;;5081969;28;20673;-72
2022/04/02 07:58:59;;;;;;;6.53;3.50;;;4.50;99.90;;;;;;5065622;28;20150;-71
2022/04/02 08:01:25;;;;;;;7.20;3.30;;;4.60;99.90;;;;;;5064698;28;20040;-70
2022/04/02 08:03:52;;;;;;;8.23;3.77;;;4.70;99.90;;;;;;5066170;28;20050;-70
2022/04/02 08:06:19;;;;;;;6.97;3.40;;;4.70;99.90;;;;;;5065288;28;20044;-70
2022/04/02 08:08:45;;;;;;;5.93;3.30;;;4.80;99.90;;;;;;5083154;28;20040;-70
2022/04/02 08:11:12;;;;;;;12.07;4.27;;;4.80;99.90;;;;;;5081664;28;20078;-71
2022/04/02 08:13:43;;;;;;;6.53;3.30;;;4.80;99.90;;;;;;5082920;28;20455;-69
2022/04/02 08:16:10;;;;;;;5.90;3.27;;;4.90;99.90;;;;;;5065171;28;20491;-70
2022/04/02 08:18:41;;;;;;;9.90;3.70;;;4.90;99.90;;;;;;5083313;28;20494;-69
2022/04/02 08:21:10;;;;;;;6.37;2.80;;;4.90;99.90;;;;;;5068004;28;20376;-69
2022/04/02 08:23:38;;;;;;;5.87;2.90;;;4.80;99.90;;;;;;5050289;28;20044;-69
2022/04/02 08:26:30;;;;;;;6.50;2.72;;;4.70;99.90;;;;;;5083996;28;20044;-69
2022/04/02 08:29:28;;;;;;;5.80;2.43;;;4.60;99.90;;;;;;5075692;28;20047;-69
2022/04/02 08:32:02;;;;;;;4.83;2.60;;;4.50;99.90;;;;;;5083368;28;20075;-69
2022/04/02 08:34:49;;;;;;;4.90;2.43;;;4.30;99.90;;;;;;5081806;28;20303;-69
2022/04/02 08:37:33;;;;;;;5.27;2.70;;;4.20;99.90;;;;;;5066524;28;20060;-69
2022/04/02 08:39:59;;;;;;;6.13;2.40;;;4.20;99.90;;;;;;5082151;28;20114;-70
2022/04/02 08:42:43;;;;;;;4.70;2.57;;;4.20;99.90;;;;;;5066255;28;20441;-69
2022/04/02 08:45:12;;;;;;;5.17;2.67;;;4.20;99.90;;;;;;5081304;28;20055;-69
2022/04/02 08:48:13;;;;;;;6.83;2.73;;;4.10;99.90;;;;;;5082204;28;20059;-69
2022/04/02 08:50:48;;;;;;;4.83;2.80;;;4.10;99.90;;;;;;5082147;28;20425;-69
2022/04/02 08:53:42;;;;;;;6.80;2.80;;;4.10;99.90;;;;;;5082654;28;20048;-69
2022/04/02 08:56:10;;;;;;;7.07;3.13;;;4.20;99.90;;;;;;5081816;28;20118;-69
2022/04/02 08:59:04;;;;;;;7.70;2.70;;;4.20;99.90;;;;;;5081944;28;20102;-69
2022/04/02 09:01:42;;;;;;;5.70;2.63;;;4.20;99.90;;;;;;5070933;28;20171;-70
2022/04/02 09:04:46;;;;;;;4.87;2.60;;;4.30;99.90;;;;;;5082566;28;20262;-69
2022/04/02 09:07:30;;;;;;;5.23;2.60;;;4.30;99.90;;;;;;5079909;28;20096;-70
2022/04/02 09:10:17;;;;;;;6.57;2.70;;;4.40;99.90;;;;;;5081429;28;20036;-69
2022/04/02 09:12:49;;;;;;;4.87;2.70;;;4.40;99.90;;;;;;5064196;28;20498;-71
2022/04/02 09:15:49;;;;;;;5.80;2.60;;;4.40;99.90;;;;;;5065532;28;20380;-69
2022/04/02 09:18:38;;;;;;;7.33;2.83;;;4.40;99.90;;;;;;5082374;28;20514;-70
2022/04/02 09:21:33;;;;;;;6.73;2.50;;;4.50;99.90;;;;;;5082025;28;20355;-70
2022/04/02 09:24:21;;;;;;;5.80;2.63;;;4.70;99.90;;;;;;5075010;28;20365;-69
2022/04/02 09:27:25;;;;;;;4.93;2.37;;;5.10;99.90;;;;;;5081499;28;20494;-69
2022/04/02 09:29:57;;;;;;;6.20;2.83;;;5.20;99.90;;;;;;5082225;28;20379;-71
2022/04/02 09:32:50;;;;;;;5.37;2.27;;;5.30;99.90;;;;;;5065454;28;20071;-69
2022/04/02 09:35:31;;;;;;;7.53;2.73;;;5.40;99.90;;;;;;5061565;28;20060;-69
2022/04/02 09:38:56;;;;;;;6.43;1.93;;;5.40;99.90;;;;;;5062122;28;20724;-71
2022/04/02 09:41:35;;;;;;;5.68;1.73;;;5.30;99.90;;;;;;5002330;28;20067;-71
2022/04/02 09:44:14;;;;;;;6.93;1.93;;;5.20;99.90;;;;;;5044993;28;20108;-72
2022/04/02 09:47:11;;;;;;;3.83;1.70;;;5.00;99.90;;;;;;5061267;28;20044;-72
2022/04/02 09:50:03;;;;;;;5.43;1.93;;;4.90;99.90;;;;;;5061782;28;20398;-71
2022/04/02 09:52:34;;;;;;;4.80;2.10;;;4.80;99.90;;;;;;5045051;28;20072;-71
2022/04/02 09:55:03;;;;;;;3.70;1.70;;;4.70;99.90;;;;;;5045787;28;20131;-71
2022/04/02 09:57:57;;;;;;;5.07;1.60;;;4.60;99.90;;;;;;5061366;28;20056;-71
2022/04/02 10:00:37;;;;;;;5.93;1.80;;;4.60;99.90;;;;;;5044879;28;20093;-71
2022/04/02 10:03:08;;;;;;;3.75;1.80;;;4.50;99.90;;;;;;5060648;28;20355;-70
2022/04/02 10:05:44;;;;;;;6.43;2.13;;;4.60;99.90;;;;;;5043817;28;20112;-72
2022/04/02 10:08:31;;;;;;;4.33;1.60;;;4.60;99.90;;;;;;5061062;28;20048;-71
2022/04/02 10:11:01;;;;;;;6.33;2.10;;;4.50;99.90;;;;;;5043179;28;20055;-69
2022/04/02 10:13:33;;;;;;;4.38;2.10;;;4.50;99.90;;;;;;5058737;28;20040;-70
2022/04/02 10:15:59;;;;;;;5.37;2.17;;;4.40;99.90;;;;;;5060757;28;20582;-70
2022/04/02 10:18:26;;;;;;;3.97;1.70;;;4.60;99.90;;;;;;5044581;28;20040;-69
2022/04/02 10:20:53;;;;;;;3.27;1.67;;;4.70;99.20;;;;;;5044044;28;20503;-70
2022/04/02 10:23:23;;;;;;;5.20;1.90;;;4.80;98.40;;;;;;5044322;28;20052;-68
2022/04/02 10:26:02;;;;;;;;;;;4.90;97.10;;;;;;5060789;28;20044;-68
2022/04/02 10:28:30;;;;;;;4.30;2.03;;;5.10;98.30;;;;;;5043728;28;19924;-69
2022/04/02 10:30:57;;;;;;;4.77;1.60;;;5.30;98.30;;;;;;5059858;28;20639;-68
2022/04/02 10:33:26;;;;;;;3.97;1.60;;;5.60;98.70;;;;;;5065581;28;20137;-69
2022/04/02 10:35:54;;;;;;;3.42;1.73;;;5.80;95.60;;;;;;5079658;28;20188;-69
2022/04/02 10:38:36;;;;;;;5.75;1.60;;;5.80;92.70;;;;;;5078326;28;20508;-68
2022/04/02 10:41:09;;;;;;;5.33;1.90;;;5.80;93.20;;;;;;5080984;28;20048;-71
2022/04/02 10:43:51;;;;;;;5.53;1.97;;;5.50;93.80;;;;;;5080495;28;20060;-69
2022/04/02 10:46:22;;;;;;;4.20;1.55;;;5.30;95.40;;;;;;5064080;28;20036;-70
2022/04/02 10:49:00;;;;;;;6.43;1.70;;;5.30;94.50;;;;;;5064203;28;20083;-70
2022/04/02 10:51:31;;;;;;;3.58;1.70;;;5.20;95.30;;;;;;5112694;28;20131;-70
2022/04/02 10:54:00;;;;;;;3.17;1.67;;;5.30;96.90;;;;;;5079975;28;20452;-69
2022/04/02 10:56:32;;;;;;;2.67;1.30;;;5.50;97.50;;;;;;5080546;28;20051;-70
2022/04/02 10:58:59;;;;;;;3.92;1.63;;;6.00;95.60;;;;;;5062608;28;20049;-70
2022/04/02 11:01:26;;;;;;;4.45;1.60;;;6.40;96.30;;;;;;5079782;28;20050;-71
2022/04/02 11:03:55;;;;;;;2.80;1.38;;;6.70;90.00;;;;;;5079051;28;20040;-70
2022/04/02 11:06:47;;;;;;;3.38;1.63;;;6.90;87.20;;;;;;5080363;28;20040;-70
2022/04/02 11:09:41;;;;;;;4.13;1.50;;;6.90;86.50;;;;;;5079502;28;20559;-71
2022/04/02 11:12:08;;;;;;;3.65;1.92;;;6.90;90.70;;;;;;5081502;28;20486;-70
2022/04/02 11:14:49;;;;;;;5.30;1.70;;;6.90;90.40;;;;;;5063873;28;20067;-71
2022/04/02 11:17:32;;;;;;;4.43;2.17;;;6.90;91.60;;;;;;5080380;28;20498;-70
2022/04/02 11:20:09;;;;;;;4.03;1.88;;;6.90;90.90;;;;;;5080388;28;20101;-70
2022/04/02 11:23:13;;;;;;;6.97;2.10;;;6.80;90.80;;;;;;5062714;28;20498;-70
2022/04/02 11:25:45;;;;;;;5.65;1.60;;;6.60;91.20;;;;;;5045869;28;20522;-72
2022/04/02 11:28:16;;;;;;;4.40;1.85;;;6.40;90.00;;;;;;5079586;28;20649;-72
2022/04/02 11:30:44;;;;;;;5.53;1.77;;;6.20;88.80;;;;;;5063286;28;20040;-71
2022/04/02 11:33:17;;;;;;;3.83;1.87;;;5.80;90.90;;;;;;5083208;28;20059;-70
2022/04/02 11:35:47;;;;;;;5.97;2.17;;;5.60;92.90;;;;;;5064688;28;20039;-70
2022/04/02 11:38:27;;;;;;;6.85;2.13;;;5.40;96.60;;;;;;5080770;28;20051;-71
2022/04/02 11:41:07;;;;;;;4.32;1.95;;;5.20;98.80;;;;;;5077976;28;20048;-70
2022/04/02 11:44:03;;;;;;;3.15;1.95;;;5.10;98.80;;;;;;5076972;28;20044;-70
2022/04/02 11:46:49;;;;;;;5.10;2.00;;;4.90;99.30;;;;;;5079611;28;20051;-70
2022/04/02 11:49:25;;;;;;;6.03;1.90;;;4.90;99.90;;;;;;5063252;28;20040;-70
2022/04/02 11:52:12;;;;;;;4.37;1.83;;;4.80;99.90;;;;;;5097177;28;20434;-70
2022/04/02 11:54:59;;;;;;;6.90;2.00;;;4.90;99.90;;;;;;5083722;28;20044;-68
2022/04/02 11:57:28;;;;;;;4.50;1.83;;;5.00;97.70;;;;;;5083451;28;20047;-69
2022/04/02 11:59:57;;;;;;;4.30;2.10;;;5.20;96.70;;;;;;5100527;28;20347;-69
2022/04/02 12:02:40;;;;;;;3.30;1.52;;;5.40;97.20;;;;;;5063845;28;20048;-69
2022/04/02 12:05:07;;;;;;;4.97;1.70;;;5.60;93.80;;;;;;5082143;28;20131;-69
2022/04/02 12:07:52;;;;;;;4.57;1.60;;;5.80;91.50;;;;;;5066129;28;20048;-69
2022/04/02 12:10:25;;;;;;;3.97;1.30;;;6.20;92.20;;;;;;5065590;28;20059;-70
2022/04/02 12:12:53;;;;;;;3.67;1.35;;;6.50;82.20;;;;;;5050104;28;20443;-70
2022/04/02 12:15:20;;;;;;;3.70;1.52;;;6.80;78.40;;;;;;5066688;28;20313;-69
2022/04/02 12:17:48;;;;;;;4.00;1.88;;;7.00;68.50;;;;;;5083326;28;20172;-69
2022/04/02 12:20:32;;;;;;;3.65;1.10;;;7.00;68.40;;;;;;5083370;28;20397;-69
2022/04/02 12:23:15;;;;;;;2.85;1.20;;;7.00;66.00;;;;;;5097916;28;20408;-71
2022/04/02 12:25:45;;;;;;;3.50;1.50;;;7.00;68.30;;;;;;5049825;28;20036;-70
2022/04/02 12:28:19;;;;;;;3.85;1.48;;;7.00;71.60;;;;;;5080696;28;20054;-70
2022/04/02 12:30:48;;;;;;;4.15;1.38;;;7.00;69.80;;;;;;5082627;28;20564;-70
2022/04/02 12:33:28;;;;;;;3.55;1.70;;;7.00;67.70;;;;;;5066108;28;20056;-70
2022/04/02 12:35:58;;;;;;;;;;;7.00;67.00;;;;;;5083508;28;20051;-71
2022/04/02 12:38:29;;;;;;;4.07;1.30;;;6.80;65.60;;;;;;5064797;28;20442;-70
2022/04/02 12:41:00;;;;;;;2.95;1.20;;;6.70;67.00;;;;;;5059378;28;20036;-73
2022/04/02 12:43:35;;;;;;;2.92;1.50;;;6.70;63.50;;;;;;5072936;28;20495;-69
2022/04/02 12:46:02;;;;;;;3.33;1.40;;;6.70;64.80;;;;;;5064521;28;20044;-70
2022/04/02 12:48:41;;;;;;;3.63;1.27;;;6.90;66.60;;;;;;5066024;28;20130;-70
2022/04/02 12:51:15;;;;;;;3.88;1.30;;;7.10;63.30;;;;;;5068708;28;20456;-70
2022/04/02 12:53:47;;;;;;;2.67;1.20;;;7.30;58.60;;;;;;5046539;28;20040;-69
2022/04/02 12:56:27;;;;;;;2.40;1.10;;;7.40;56.70;;;;;;5076373;28;20135;-70
2022/04/02 12:58:58;;;;;;;3.53;1.20;;;7.40;57.30;;;;;;5073498;28;20048;-69
2022/04/02 13:01:29;;;;;;;3.17;1.38;;;7.50;57.90;;;;;;5061809;28;20044;-69
2022/04/02 13:04:03;;;;;;;4.43;1.40;;;7.60;58.40;;;;;;5048189;28;20040;-69
2022/04/02 13:06:32;;;;;;;2.60;1.02;;;7.70;55.50;;;;;;5073549;28;20525;-69
2022/04/02 13:09:01;;;;;;;3.05;1.25;;;7.60;54.90;;;;;;5044201;28;20139;-69
2022/04/02 13:11:36;;;;;;;2.58;1.20;;;7.60;55.50;;;;;;5061796;28;20048;-69
2022/04/02 13:14:12;;;;;;;3.97;1.42;;;7.70;57.30;;;;;;5072512;28;20358;-69
2022/04/02 13:16:39;;;;;;;3.60;1.23;;;7.80;58.10;;;;;;5056828;28;20037;-68
2022/04/02 13:22:03;;;;;;;4.72;1.40;;;7.50;55.20;;;;;;5064914;28;20040;-69
2022/04/02 13:24:49;;;;;;;5.70;1.55;;;7.50;56.20;;;;;;5049818;28;20510;-68